Time;durP1;ratioP1;P1;durP2;ratioP2;P2;SDS_P1;SDS_P2;PMS_P1;PMS_P2;Temp;Humidity;BMP_temperature;BMP_pressure;BME280_temperature;BME280_humidity;BME280_pressure;Samples;Min_cycle;Max_cycle;Signal;HPM_P1;HPM_P2
2022/03/12 00:01:08;;;;;;;24.08;10.15;;;11.10;70.70;;;;;;5007279;28;20038;-63
2022/03/12 00:03:35;;;;;;;24.15;10.65;;;11.00;71.00;;;;;;5014020;28;20026;-61
2022/03/12 00:06:02;;;;;;;24.73;11.95;;;11.10;71.60;;;;;;5006710;28;20117;-62
2022/03/12 00:08:43;;;;;;;24.10;11.13;;;11.00;72.60;;;;;;5005047;28;20474;-61
2022/03/12 00:11:23;;;;;;;26.10;12.15;;;11.00;72.00;;;;;;5005225;28;20076;-65
2022/03/12 00:13:50;;;;;;;25.23;11.05;;;11.00;72.70;;;;;;5008549;28;20026;-63
2022/03/12 00:16:23;;;;;;;21.27;10.98;;;10.90;73.60;;;;;;5007207;28;20037;-62
2022/03/12 00:18:53;;;;;;;25.77;10.88;;;10.80;74.40;;;;;;5011966;28;20034;-62
2022/03/12 00:21:21;;;;;;;29.98;12.10;;;10.80;74.90;;;;;;5008976;28;20398;-64
2022/03/12 00:23:56;;;;;;;25.20;11.02;;;10.70;75.40;;;;;;5014434;28;20088;-62
2022/03/12 00:26:23;;;;;;;22.98;10.85;;;10.60;75.30;;;;;;5012885;28;20037;-62
2022/03/12 00:28:50;;;;;;;21.85;9.93;;;10.60;76.00;;;;;;5012311;28;20037;-63
2022/03/12 00:31:16;;;;;;;22.77;10.27;;;10.60;76.40;;;;;;5011728;28;20030;-65
2022/03/12 00:33:42;;;;;;;22.77;9.48;;;10.60;77.30;;;;;;5012984;28;20030;-65
2022/03/12 00:36:08;;;;;;;24.23;11.52;;;10.50;77.40;;;;;;5012656;28;20355;-65
2022/03/12 00:38:35;;;;;;;21.25;10.68;;;10.40;78.70;;;;;;5012926;28;20045;-62
2022/03/12 00:41:02;;;;;;;24.40;11.43;;;10.40;78.50;;;;;;5012203;28;20037;-63
2022/03/12 00:43:28;;;;;;;21.77;10.38;;;10.40;78.50;;;;;;5022630;28;20125;-62
2022/03/12 00:45:54;;;;;;;24.10;10.60;;;10.40;78.90;;;;;;5012501;28;20126;-63
2022/03/12 00:48:19;;;;;;;25.60;11.35;;;10.40;78.90;;;;;;5013888;28;20034;-62
2022/03/12 00:50:45;;;;;;;22.50;10.27;;;10.40;79.70;;;;;;5013608;28;20435;-64
2022/03/12 00:53:10;;;;;;;24.05;10.60;;;10.30;80.10;;;;;;5013794;28;20040;-63
2022/03/12 00:55:36;;;;;;;24.80;11.48;;;10.30;81.00;;;;;;5014241;28;20409;-65
2022/03/12 00:58:02;;;;;;;26.42;11.57;;;10.30;81.70;;;;;;5013631;28;20026;-63
2022/03/12 01:00:28;;;;;;;22.35;10.35;;;10.20;82.90;;;;;;5013548;28;20030;-65
2022/03/12 01:02:54;;;;;;;23.80;11.23;;;10.20;84.10;;;;;;5013424;28;20096;-65
2022/03/12 01:05:54;;;;;;;23.70;12.35;;;10.10;84.50;;;;;;5013373;28;20050;-62
2022/03/12 01:08:23;;;;;;;24.25;10.80;;;10.00;85.50;;;;;;5016447;28;20038;-62
2022/03/12 01:10:50;;;;;;;24.40;10.55;;;10.00;87.40;;;;;;5011474;28;20485;-65
2022/03/12 01:13:16;;;;;;;25.63;12.18;;;9.80;88.70;;;;;;5013279;28;20033;-66
2022/03/12 01:15:41;;;;;;;23.52;11.95;;;9.70;90.10;;;;;;5014011;28;20037;-65
2022/03/12 01:18:13;;;;;;;22.90;11.68;;;9.60;91.50;;;;;;5014580;28;20037;-68
2022/03/12 01:20:40;;;;;;;20.05;9.45;;;9.40;92.60;;;;;;5017910;28;20414;-66
2022/03/12 01:23:06;;;;;;;22.17;10.77;;;9.30;94.20;;;;;;5012058;28;20050;-66
2022/03/12 01:25:31;;;;;;;25.67;11.70;;;9.10;95.70;;;;;;5013799;28;20038;-66
2022/03/12 01:27:57;;;;;;;26.13;12.60;;;9.00;97.00;;;;;;5013545;28;20030;-63
2022/03/12 01:30:28;;;;;;;21.80;11.18;;;8.80;98.00;;;;;;5013169;28;20030;-64
2022/03/12 01:32:53;;;;;;;26.67;12.93;;;8.70;99.50;;;;;;5013742;28;20390;-63
2022/03/12 01:35:19;;;;;;;26.75;12.40;;;8.60;99.90;;;;;;5012557;28;20026;-66
2022/03/12 01:37:45;;;;;;;25.67;11.77;;;8.50;99.90;;;;;;5011657;28;20030;-65
2022/03/12 01:40:11;;;;;;;25.98;12.57;;;8.40;99.90;;;;;;5012563;28;20033;-64
2022/03/12 01:42:37;;;;;;;24.48;12.23;;;8.40;99.90;;;;;;5013151;28;20026;-64
2022/03/12 01:45:09;;;;;;;22.85;11.18;;;8.30;99.90;;;;;;5013264;28;20117;-64
2022/03/12 01:47:34;;;;;;;24.30;11.77;;;8.20;99.90;;;;;;5013159;28;20073;-64
2022/03/12 01:50:01;;;;;;;25.15;11.25;;;8.20;99.90;;;;;;5021674;28;20114;-65
2022/03/12 01:52:28;;;;;;;28.30;13.38;;;8.20;99.90;;;;;;5014456;28;20028;-64
2022/03/12 01:54:55;;;;;;;25.58;13.18;;;8.20;99.90;;;;;;5012676;28;20029;-65
2022/03/12 01:57:20;;;;;;;27.33;13.38;;;8.20;99.90;;;;;;5012737;28;20049;-65
2022/03/12 01:59:46;;;;;;;26.38;13.20;;;8.20;99.90;;;;;;5012474;28;20356;-64
2022/03/12 02:02:13;;;;;;;26.45;13.20;;;8.20;99.90;;;;;;5012440;28;20104;-64
2022/03/12 02:04:41;;;;;;;25.63;13.20;;;8.20;99.90;;;;;;5012225;28;20117;-63
2022/03/12 02:07:07;;;;;;;25.70;13.50;;;8.30;99.90;;;;;;5012204;28;20026;-66
2022/03/12 02:09:33;;;;;;;26.17;12.68;;;8.40;99.90;;;;;;5013120;28;20030;-64
2022/03/12 02:11:59;;;;;;;25.40;12.82;;;8.40;99.90;;;;;;5012966;28;20096;-66
2022/03/12 02:14:27;;;;;;;26.00;13.25;;;8.50;99.90;;;;;;5013264;28;20545;-65
2022/03/12 02:16:58;;;;;;;27.85;13.35;;;8.60;99.90;;;;;;5011673;28;20030;-64
2022/03/12 02:19:26;;;;;;;23.77;12.00;;;8.70;99.90;;;;;;5011324;28;20037;-64
2022/03/12 02:22:03;;;;;;;25.23;11.80;;;8.70;99.90;;;;;;5012655;28;20038;-63
2022/03/12 02:24:32;;;;;;;27.52;14.40;;;8.80;99.90;;;;;;5010390;28;20038;-64
2022/03/12 02:27:00;;;;;;;27.48;12.65;;;8.80;99.90;;;;;;5025909;28;20026;-66
2022/03/12 02:29:26;;;;;;;26.77;12.93;;;8.90;99.90;;;;;;5012604;28;20025;-63
2022/03/12 02:32:03;;;;;;;24.83;12.30;;;8.90;99.90;;;;;;5020132;28;20165;-64
2022/03/12 02:34:52;;;;;;;24.48;12.18;;;8.90;99.90;;;;;;5013924;28;20156;-64
2022/03/12 02:37:30;;;;;;;25.20;12.27;;;9.00;99.90;;;;;;5011910;28;20042;-64
2022/03/12 02:40:01;;;;;;;26.65;12.77;;;9.10;99.90;;;;;;5012629;28;20026;-66
2022/03/12 02:42:28;;;;;;;23.95;11.95;;;9.20;99.90;;;;;;5011770;28;20026;-63
2022/03/12 02:44:54;;;;;;;24.95;10.80;;;9.20;99.90;;;;;;5012195;28;20088;-66
2022/03/12 02:47:29;;;;;;;24.25;10.75;;;9.20;99.90;;;;;;5011270;28;20042;-66
2022/03/12 02:49:59;;;;;;;23.25;11.27;;;9.30;99.90;;;;;;5012445;28;20084;-65
2022/03/12 02:52:27;;;;;;;22.23;11.75;;;9.30;99.90;;;;;;5011665;28;20363;-64
2022/03/12 02:54:55;;;;;;;22.77;12.02;;;9.40;99.90;;;;;;5011676;28;20467;-66
2022/03/12 02:57:25;;;;;;;22.40;11.68;;;9.40;99.90;;;;;;5012000;28;20073;-64
2022/03/12 02:59:55;;;;;;;26.15;12.40;;;9.40;99.90;;;;;;5011726;28;20076;-66
2022/03/12 03:02:25;;;;;;;26.08;11.85;;;9.40;99.90;;;;;;5011865;28;20030;-63
2022/03/12 03:04:53;;;;;;;23.83;11.88;;;9.50;99.90;;;;;;5011158;28;20623;-65
2022/03/12 03:07:19;;;;;;;24.30;11.30;;;9.60;99.90;;;;;;5014708;28;20058;-63
2022/03/12 03:09:45;;;;;;;22.05;10.85;;;9.60;99.90;;;;;;5016714;28;20135;-66
2022/03/12 03:12:12;;;;;;;22.80;11.05;;;9.70;99.90;;;;;;5016010;28;20030;-62
2022/03/12 03:14:45;;;;;;;22.75;11.43;;;9.70;99.90;;;;;;5028735;28;20389;-64
2022/03/12 03:17:12;;;;;;;23.67;11.98;;;9.70;99.90;;;;;;5007118;28;20053;-63
2022/03/12 03:19:39;;;;;;;25.63;11.30;;;9.70;99.90;;;;;;5015771;28;20029;-63
2022/03/12 03:22:06;;;;;;;23.02;10.95;;;9.70;99.90;;;;;;5014917;28;20022;-63
2022/03/12 03:24:32;;;;;;;21.83;10.35;;;9.60;99.90;;;;;;5014747;28;20049;-66
2022/03/12 03:26:59;;;;;;;22.92;11.20;;;9.60;99.90;;;;;;5015342;28;20466;-65
2022/03/12 03:29:27;;;;;;;24.52;11.60;;;9.50;99.90;;;;;;5015863;28;20474;-64
2022/03/12 03:31:54;;;;;;;20.33;9.43;;;9.50;99.90;;;;;;5015672;28;20029;-66
2022/03/12 03:34:21;;;;;;;22.20;11.15;;;9.50;99.90;;;;;;5014377;28;20113;-65
2022/03/12 03:36:47;;;;;;;24.27;10.00;;;9.50;99.90;;;;;;5015464;28;20386;-63
2022/03/12 03:39:13;;;;;;;23.20;9.68;;;9.50;99.90;;;;;;5015693;28;20034;-62
2022/03/12 03:41:38;;;;;;;23.20;10.57;;;9.50;99.90;;;;;;5014970;28;20042;-65
2022/03/12 03:44:07;;;;;;;19.45;9.20;;;9.60;99.90;;;;;;5014797;28;20066;-62
2022/03/12 03:46:34;;;;;;;21.65;10.48;;;9.70;99.90;;;;;;5014860;28;20105;-63
2022/03/12 03:49:01;;;;;;;21.67;9.90;;;9.70;99.90;;;;;;5014774;28;20466;-63
2022/03/12 03:51:26;;;;;;;25.48;10.82;;;9.70;99.90;;;;;;5014580;28;20133;-63
2022/03/12 03:53:52;;;;;;;22.60;10.93;;;9.80;99.90;;;;;;5013905;28;20110;-63
2022/03/12 03:56:20;;;;;;;21.23;10.48;;;9.90;99.90;;;;;;5017929;28;20041;-62
2022/03/12 03:58:45;;;;;;;24.48;9.52;;;9.90;99.90;;;;;;5015114;28;20415;-63
2022/03/12 04:01:16;;;;;;;18.33;8.98;;;9.90;99.90;;;;;;5015041;28;20068;-63
2022/03/12 04:03:48;;;;;;;18.25;8.63;;;10.00;99.90;;;;;;5013406;28;20398;-63
2022/03/12 04:06:15;;;;;;;18.27;8.50;;;10.00;99.90;;;;;;5013672;28;20519;-63
2022/03/12 04:08:42;;;;;;;16.98;7.68;;;10.00;99.90;;;;;;5024846;28;20112;-63
2022/03/12 04:11:17;;;;;;;19.65;9.07;;;10.00;99.90;;;;;;5015281;28;20454;-63
2022/03/12 04:13:43;;;;;;;15.52;6.75;;;10.00;99.90;;;;;;5028237;28;20094;-63
2022/03/12 04:16:09;;;;;;;20.63;8.88;;;10.00;99.90;;;;;;5018548;28;20113;-63
2022/03/12 04:18:36;;;;;;;19.00;8.02;;;10.00;99.90;;;;;;5015615;28;20037;-63
2022/03/12 04:21:04;;;;;;;14.68;6.78;;;10.00;99.90;;;;;;5014231;28;20022;-63
2022/03/12 04:23:29;;;;;;;13.23;7.28;;;10.10;99.90;;;;;;5014444;28;20097;-63
2022/03/12 04:25:57;;;;;;;19.88;8.68;;;10.10;99.90;;;;;;5004164;28;20473;-63
2022/03/12 04:28:27;;;;;;;18.77;8.52;;;10.20;99.90;;;;;;5022539;28;20133;-63
2022/03/12 04:30:52;;;;;;;15.38;7.25;;;10.20;99.90;;;;;;5008114;28;20037;-63
2022/03/12 04:33:21;;;;;;;17.83;7.43;;;10.30;99.90;;;;;;5015068;28;20084;-63
2022/03/12 04:35:48;;;;;;;18.65;7.72;;;10.30;99.90;;;;;;5011959;28;20026;-63
2022/03/12 04:38:15;;;;;;;15.65;6.07;;;10.40;99.90;;;;;;5015105;28;20026;-63
2022/03/12 04:40:43;;;;;;;17.08;7.25;;;10.40;99.90;;;;;;5011537;28;20022;-63
2022/03/12 04:43:11;;;;;;;17.02;7.68;;;10.40;99.90;;;;;;5014612;28;20037;-63
2022/03/12 04:45:37;;;;;;;19.05;7.72;;;10.40;99.90;;;;;;5014700;28;20022;-61
2022/03/12 04:48:03;;;;;;;17.80;8.07;;;10.50;99.90;;;;;;5011946;28;20029;-61
2022/03/12 04:50:29;;;;;;;15.68;7.18;;;10.50;99.90;;;;;;5014237;28;20030;-62
2022/03/12 04:53:00;;;;;;;16.77;7.47;;;10.60;99.90;;;;;;5013996;28;20034;-64
2022/03/12 04:55:29;;;;;;;16.00;7.57;;;10.60;99.90;;;;;;5014157;28;20382;-62
2022/03/12 04:57:55;;;;;;;14.52;6.80;;;10.60;99.90;;;;;;5014428;28;20461;-61
2022/03/12 05:00:27;;;;;;;16.90;7.97;;;10.60;99.90;;;;;;5014793;28;20462;-62
2022/03/12 05:03:19;;;;;;;18.20;8.30;;;10.60;99.90;;;;;;5010823;28;20451;-62
2022/03/12 05:05:48;;;;;;;17.20;7.90;;;10.50;99.90;;;;;;4995170;28;20034;-62
2022/03/12 05:08:20;;;;;;;16.77;7.57;;;10.40;99.90;;;;;;5013810;28;20029;-62
2022/03/12 05:10:51;;;;;;;18.87;7.50;;;10.30;99.90;;;;;;5014516;28;20257;-62
2022/03/12 05:13:25;;;;;;;16.27;8.02;;;10.20;99.90;;;;;;5013571;28;20069;-62
2022/03/12 05:15:56;;;;;;;17.70;7.57;;;10.10;99.90;;;;;;5014054;28;20069;-62
2022/03/12 05:18:23;;;;;;;18.37;9.27;;;10.00;99.90;;;;;;5013182;28;20026;-62
2022/03/12 05:20:50;;;;;;;19.60;8.70;;;10.00;99.90;;;;;;5013800;28;20033;-62
2022/03/12 05:23:17;;;;;;;15.95;7.85;;;10.00;99.90;;;;;;5004558;28;20054;-62
2022/03/12 05:25:44;;;;;;;17.63;8.32;;;9.90;99.90;;;;;;4994471;28;20033;-62
2022/03/12 05:28:21;;;;;;;17.30;7.20;;;9.80;99.90;;;;;;5011098;28;20030;-62
2022/03/12 05:30:47;;;;;;;18.65;7.90;;;9.70;99.90;;;;;;5013212;28;20026;-62
2022/03/12 05:33:13;;;;;;;14.38;6.50;;;9.70;99.90;;;;;;5013556;28;20034;-63
2022/03/12 05:35:40;;;;;;;19.38;8.73;;;9.60;99.90;;;;;;5013774;28;20033;-62
2022/03/12 05:38:06;;;;;;;17.38;7.82;;;9.50;99.90;;;;;;5004020;28;20029;-62
2022/03/12 05:40:38;;;;;;;17.63;8.52;;;9.50;99.90;;;;;;5012835;28;20041;-61
2022/03/12 05:43:14;;;;;;;15.30;6.88;;;9.50;99.90;;;;;;5004033;28;20092;-62
2022/03/12 05:45:41;;;;;;;18.10;7.18;;;9.50;99.90;;;;;;5000287;28;20101;-64
2022/03/12 05:48:09;;;;;;;14.60;5.85;;;9.40;99.90;;;;;;5013091;28;20026;-64
2022/03/12 05:50:36;;;;;;;17.58;8.63;;;9.40;99.90;;;;;;5013009;28;20026;-62
2022/03/12 05:53:02;;;;;;;14.05;7.45;;;9.30;99.90;;;;;;5012992;28;20029;-62
2022/03/12 05:55:27;;;;;;;17.65;6.97;;;9.30;99.90;;;;;;5013242;28;20026;-62
2022/03/12 05:57:53;;;;;;;15.23;6.30;;;9.30;99.90;;;;;;5002473;28;20031;-62
2022/03/12 06:00:19;;;;;;;15.90;6.60;;;9.20;99.90;;;;;;5012108;28;20121;-62
2022/03/12 06:02:51;;;;;;;16.70;7.53;;;9.20;99.90;;;;;;5003502;28;20033;-62
2022/03/12 06:05:22;;;;;;;16.13;6.70;;;9.20;99.90;;;;;;4998423;28;20037;-62
2022/03/12 06:07:49;;;;;;;15.70;7.43;;;9.20;99.90;;;;;;5018843;28;20029;-61
2022/03/12 06:10:17;;;;;;;16.35;7.40;;;9.20;99.90;;;;;;5033113;28;20032;-61
2022/03/12 06:12:43;;;;;;;18.65;7.82;;;9.10;99.90;;;;;;5011643;28;20029;-62
2022/03/12 06:15:10;;;;;;;16.35;7.60;;;9.20;99.90;;;;;;5012472;28;20044;-62
2022/03/12 06:17:38;;;;;;;15.75;6.15;;;9.10;99.90;;;;;;5011395;28;20037;-62
2022/03/12 06:20:04;;;;;;;19.08;7.95;;;9.10;99.90;;;;;;5012523;28;20026;-63
2022/03/12 06:22:30;;;;;;;14.63;6.68;;;9.20;99.90;;;;;;5010498;28;20398;-62
2022/03/12 06:24:55;;;;;;;16.60;7.00;;;9.20;99.90;;;;;;5011943;28;20045;-62
2022/03/12 06:27:22;;;;;;;15.75;6.55;;;9.20;99.90;;;;;;5010745;28;20022;-62
2022/03/12 06:29:48;;;;;;;16.48;7.32;;;9.20;99.90;;;;;;5013250;28;20030;-62
2022/03/12 06:32:14;;;;;;;18.23;8.85;;;9.20;99.90;;;;;;5004873;28;20037;-61
2022/03/12 06:34:41;;;;;;;16.85;7.55;;;9.20;99.90;;;;;;4993752;28;20038;-62
2022/03/12 06:37:08;;;;;;;17.48;7.75;;;9.20;99.90;;;;;;5011653;28;20045;-61
2022/03/12 06:39:34;;;;;;;14.82;7.03;;;9.20;99.90;;;;;;5014048;28;20097;-62
2022/03/12 06:42:02;;;;;;;17.77;7.88;;;9.20;99.90;;;;;;5014781;28;20117;-63
2022/03/12 06:44:32;;;;;;;16.25;7.20;;;9.30;99.90;;;;;;5016176;28;20038;-62
2022/03/12 06:46:59;;;;;;;15.15;6.88;;;9.30;99.90;;;;;;5014862;28;20048;-62
2022/03/12 06:49:26;;;;;;;16.48;6.75;;;9.30;99.90;;;;;;5016540;28;20037;-62
2022/03/12 06:51:52;;;;;;;16.52;6.80;;;9.30;99.90;;;;;;5016318;28;20025;-62
2022/03/12 06:54:18;;;;;;;14.60;7.28;;;9.40;99.90;;;;;;5030716;28;20034;-62
2022/03/12 06:56:44;;;;;;;13.52;5.45;;;9.40;99.90;;;;;;5016280;28;20084;-61
2022/03/12 06:59:09;;;;;;;16.77;7.78;;;9.50;99.90;;;;;;5015374;28;20034;-63
2022/03/12 07:01:35;;;;;;;21.38;9.75;;;9.50;99.90;;;;;;5001523;28;20045;-62
2022/03/12 07:04:00;;;;;;;14.50;7.07;;;9.60;99.90;;;;;;5001891;28;20041;-63
2022/03/12 07:06:26;;;;;;;12.23;5.40;;;9.60;99.90;;;;;;5016435;28;20116;-62
2022/03/12 07:08:52;;;;;;;13.70;5.97;;;9.70;99.90;;;;;;5015973;28;20026;-63
2022/03/12 07:11:20;;;;;;;14.25;5.25;;;9.70;99.90;;;;;;5013460;28;20054;-62
2022/03/12 07:13:46;;;;;;;12.10;5.80;;;9.70;99.90;;;;;;5001450;28;20470;-63
2022/03/12 07:16:11;;;;;;;14.52;6.80;;;9.80;99.90;;;;;;5015413;28;20022;-63
2022/03/12 07:18:38;;;;;;;13.82;5.90;;;9.80;99.90;;;;;;5016624;28;20433;-63
2022/03/12 07:21:09;;;;;;;12.43;5.95;;;9.90;99.90;;;;;;5015630;28;20100;-63
2022/03/12 07:23:35;;;;;;;15.02;6.65;;;9.90;99.90;;;;;;5009723;28;20100;-63
2022/03/12 07:26:01;;;;;;;12.18;5.68;;;10.00;99.90;;;;;;5015343;28;20034;-63
2022/03/12 07:28:27;;;;;;;13.18;5.50;;;10.10;99.90;;;;;;5016225;28;20022;-63
2022/03/12 07:30:53;;;;;;;14.40;5.60;;;10.10;99.90;;;;;;5015206;28;20014;-63
2022/03/12 07:33:19;;;;;;;15.60;6.75;;;10.10;99.90;;;;;;5016286;28;20105;-62
2022/03/12 07:35:45;;;;;;;14.65;5.93;;;10.20;99.90;;;;;;5015030;28;20117;-63
2022/03/12 07:38:12;;;;;;;12.98;5.32;;;10.30;99.90;;;;;;5015137;28;20390;-62
2022/03/12 07:40:38;;;;;;;14.90;6.03;;;10.30;99.90;;;;;;5015260;28;20026;-63
2022/03/12 07:43:04;;;;;;;10.63;4.85;;;10.40;99.90;;;;;;5015593;28;20037;-65
2022/03/12 07:45:30;;;;;;;13.75;5.97;;;10.50;99.90;;;;;;5015432;28;20446;-62
2022/03/12 07:47:55;;;;;;;12.70;4.95;;;10.50;99.90;;;;;;5014383;28;20026;-66
2022/03/12 07:50:21;;;;;;;12.93;5.90;;;10.60;99.90;;;;;;5014891;28;20537;-65
2022/03/12 07:52:47;;;;;;;12.48;5.18;;;10.70;99.90;;;;;;5014326;28;20497;-67
2022/03/12 07:55:13;;;;;;;15.52;6.15;;;10.70;99.90;;;;;;5012289;28;20034;-64
2022/03/12 07:57:40;;;;;;;9.77;4.43;;;10.80;99.90;;;;;;5012169;28;20445;-63
2022/03/12 08:00:09;;;;;;;15.32;6.00;;;10.90;99.90;;;;;;5013060;28;20366;-66
2022/03/12 08:02:35;;;;;;;13.20;5.70;;;11.00;99.90;;;;;;5013817;28;20443;-69
2022/03/12 08:05:01;;;;;;;12.95;6.07;;;11.20;99.90;;;;;;5014756;28;20501;-63
2022/03/12 08:07:28;;;;;;;13.23;5.65;;;11.30;99.90;;;;;;5016979;28;20057;-66
2022/03/12 08:09:56;;;;;;;14.20;6.50;;;11.30;99.90;;;;;;4995660;28;20378;-63
2022/03/12 08:12:30;;;;;;;14.45;6.03;;;11.40;99.90;;;;;;5008313;28;20528;-65
2022/03/12 08:14:57;;;;;;;11.75;5.03;;;11.60;99.90;;;;;;5014807;28;20153;-64
2022/03/12 08:17:24;;;;;;;10.43;5.22;;;11.70;99.90;;;;;;5015433;28;20022;-63
2022/03/12 08:19:50;;;;;;;13.93;5.72;;;11.90;99.90;;;;;;5014575;28;20037;-64
2022/03/12 08:22:16;;;;;;;13.13;5.53;;;12.10;99.90;;;;;;5014053;28;20052;-63
2022/03/12 08:24:41;;;;;;;9.95;4.97;;;12.50;99.90;;;;;;5012907;28;20046;-62
2022/03/12 08:27:08;;;;;;;11.52;5.05;;;12.70;99.90;;;;;;5014893;28;20037;-63
2022/03/12 08:29:33;;;;;;;10.48;3.95;;;13.00;99.90;;;;;;5014494;28;20040;-65
2022/03/12 08:31:59;;;;;;;9.10;4.65;;;13.40;99.90;;;;;;5007891;28;20038;-63
2022/03/12 08:34:25;;;;;;;9.90;4.20;;;13.80;99.90;;;;;;5008927;28;20061;-66
2022/03/12 08:36:51;;;;;;;13.75;4.95;;;14.10;99.90;;;;;;5014477;28;20112;-66
2022/03/12 08:39:17;;;;;;;8.30;3.92;;;14.40;99.90;;;;;;5015096;28;20109;-62
2022/03/12 08:41:43;;;;;;;9.45;4.53;;;14.70;99.90;;;;;;5014064;28;20033;-63
2022/03/12 08:44:09;;;;;;;10.07;4.38;;;14.80;99.90;;;;;;5014162;28;20362;-63
2022/03/12 08:46:36;;;;;;;10.38;4.53;;;15.20;99.90;;;;;;5013658;28;20124;-62
2022/03/12 08:49:03;;;;;;;9.98;4.70;;;15.30;99.90;;;;;;5014072;28;20022;-66
2022/03/12 08:51:29;;;;;;;11.48;4.72;;;15.20;99.90;;;;;;5013499;28;20489;-62
2022/03/12 08:53:54;;;;;;;9.85;4.85;;;15.20;99.90;;;;;;5010231;28;20022;-65
2022/03/12 08:56:20;;;;;;;8.50;3.97;;;15.40;99.90;;;;;;5014743;28;20057;-64
2022/03/12 08:58:47;;;;;;;7.68;4.10;;;15.80;99.90;;;;;;5008735;28;20496;-65
2022/03/12 09:01:15;;;;;;;10.13;4.10;;;15.90;99.90;;;;;;5008056;28;20044;-67
2022/03/12 09:03:42;;;;;;;8.73;3.50;;;16.00;99.90;;;;;;5011180;28;20038;-63
2022/03/12 09:06:07;;;;;;;8.15;3.85;;;15.70;99.90;;;;;;5014338;28;20038;-66
2022/03/12 09:08:34;;;;;;;7.00;3.17;;;15.70;99.90;;;;;;5013592;28;20034;-65
2022/03/12 09:11:00;;;;;;;12.30;4.05;;;15.60;99.90;;;;;;5013674;28;20033;-64
2022/03/12 09:13:26;;;;;;;7.50;3.17;;;15.20;99.90;;;;;;5014163;28;20029;-66
2022/03/12 09:15:52;;;;;;;7.93;3.45;;;14.70;99.90;;;;;;5024903;28;20057;-62
2022/03/12 09:18:18;;;;;;;6.60;2.90;;;14.40;99.90;;;;;;5009195;28;20168;-63
2022/03/12 09:20:47;;;;;;;7.50;3.13;;;14.30;99.90;;;;;;5014060;28;20026;-64
2022/03/12 09:23:18;;;;;;;4.00;2.72;;;14.30;99.90;;;;;;5012763;28;20505;-62
2022/03/12 09:25:46;;;;;;;10.30;4.03;;;14.40;99.90;;;;;;5012703;28;20045;-63
2022/03/12 09:28:12;;;;;;;7.05;3.53;;;14.50;99.90;;;;;;5010864;28;20030;-62
2022/03/12 09:30:38;;;;;;;6.15;3.05;;;14.60;99.90;;;;;;5028433;28;20112;-62
2022/03/12 09:33:05;;;;;;;8.27;3.33;;;14.60;99.90;;;;;;5014203;28;20030;-65
2022/03/12 09:35:31;;;;;;;8.02;3.10;;;14.50;99.90;;;;;;5012801;28;20445;-64
2022/03/12 09:37:59;;;;;;;5.25;3.22;;;14.50;99.90;;;;;;5012555;28;20033;-63
2022/03/12 09:40:25;;;;;;;9.88;3.22;;;14.40;99.90;;;;;;5013692;28;20022;-63
2022/03/12 09:42:51;;;;;;;7.90;3.78;;;14.50;99.90;;;;;;5011939;28;20056;-63
2022/03/12 09:45:19;;;;;;;7.70;2.70;;;14.50;99.90;;;;;;5013703;28;20401;-63
2022/03/12 09:47:45;;;;;;;8.65;3.80;;;14.80;99.90;;;;;;5013420;28;20061;-63
2022/03/12 09:50:11;;;;;;;9.93;3.20;;;14.80;99.90;;;;;;5009383;28;20066;-63
2022/03/12 09:52:41;;;;;;;5.15;2.95;;;15.10;99.90;;;;;;5027309;28;20037;-65
2022/03/12 09:55:07;;;;;;;9.48;3.80;;;15.30;99.90;;;;;;5023536;28;20026;-62
2022/03/12 09:57:34;;;;;;;5.60;3.15;;;15.30;99.90;;;;;;5010525;28;20113;-65
2022/03/12 10:00:00;;;;;;;6.90;3.40;;;15.10;99.90;;;;;;5014936;28;20374;-64
2022/03/12 10:02:26;;;;;;;10.15;3.85;;;14.80;99.90;;;;;;5014426;28;20026;-66
2022/03/12 10:04:53;;;;;;;6.05;3.13;;;15.00;99.90;;;;;;5011786;28;20049;-64
2022/03/12 10:07:19;;;;;;;8.23;2.88;;;15.30;99.90;;;;;;5017003;28;20037;-63
2022/03/12 10:09:44;;;;;;;6.57;3.03;;;15.80;99.90;;;;;;5012610;28;20030;-63
2022/03/12 10:12:10;;;;;;;6.03;3.22;;;16.20;99.90;;;;;;5003082;28;20048;-62
2022/03/12 10:14:36;;;;;;;7.85;4.28;;;16.10;99.90;;;;;;5004670;28;20037;-64
2022/03/12 10:17:03;;;;;;;9.27;3.53;;;16.10;99.90;;;;;;5012514;28;20030;-65
2022/03/12 10:19:30;;;;;;;8.55;3.75;;;16.30;99.90;;;;;;5011156;28;21719;-65
2022/03/12 10:21:57;;;;;;;10.75;3.33;;;16.60;99.90;;;;;;5012890;28;20030;-62
2022/03/12 10:24:26;;;;;;;8.15;4.07;;;16.30;99.90;;;;;;5012665;28;20056;-66
2022/03/12 10:26:55;;;;;;;11.80;4.05;;;16.00;99.90;;;;;;5011517;28;20045;-64
2022/03/12 10:29:21;;;;;;;6.82;3.13;;;15.80;99.90;;;;;;5003808;28;20084;-62
2022/03/12 10:31:46;;;;;;;4.00;2.65;;;15.70;99.90;;;;;;5009152;28;20046;-63
2022/03/12 10:34:28;;;;;;;8.27;3.45;;;15.90;99.90;;;;;;5011938;28;20042;-67
2022/03/12 10:36:55;;;;;;;5.28;2.75;;;16.30;99.90;;;;;;5010856;28;20117;-62
2022/03/12 10:39:36;;;;;;;5.82;2.80;;;16.70;99.80;;;;;;5012411;28;20042;-63
2022/03/12 10:42:06;;;;;;;6.25;2.83;;;16.80;99.60;;;;;;5010263;28;20037;-65
2022/03/12 10:44:34;;;;;;;5.72;3.10;;;16.90;99.60;;;;;;5012065;28;20451;-64
2022/03/12 10:47:01;;;;;;;7.20;2.60;;;17.20;99.10;;;;;;5009608;28;20084;-63
2022/03/12 10:49:27;;;;;;;8.48;2.60;;;17.60;98.40;;;;;;5009428;28;20037;-62
2022/03/12 10:51:57;;;;;;;5.35;2.53;;;17.80;97.90;;;;;;5011867;28;20445;-62
2022/03/12 10:54:24;;;;;;;6.28;2.42;;;17.80;98.00;;;;;;5011560;28;20034;-62
2022/03/12 10:56:56;;;;;;;5.55;2.55;;;17.80;97.90;;;;;;5011976;28;20026;-63
2022/03/12 10:59:26;;;;;;;7.03;2.90;;;17.80;98.00;;;;;;5011807;28;20018;-63
2022/03/12 11:01:55;;;;;;;5.40;2.70;;;17.60;98.00;;;;;;5011414;28;20025;-63
2022/03/12 11:04:30;;;;;;;7.68;3.08;;;17.30;98.20;;;;;;5011902;28;20085;-62
2022/03/12 11:07:01;;;;;;;5.57;3.47;;;17.10;98.60;;;;;;5012413;28;20026;-62
2022/03/12 11:09:38;;;;;;;8.90;3.40;;;17.20;98.40;;;;;;5010957;28;20037;-63
2022/03/12 11:12:35;;;;;;;9.50;3.75;;;17.50;97.90;;;;;;5003349;28;20037;-62
2022/03/12 11:15:15;;;;;;;8.30;2.72;;;17.40;97.80;;;;;;4998757;28;20029;-63
2022/03/12 11:17:44;;;;;;;5.05;3.00;;;17.20;97.90;;;;;;5007740;28;20373;-65
2022/03/12 11:20:21;;;;;;;4.35;2.63;;;17.20;97.90;;;;;;5001718;28;20140;-65
2022/03/12 11:22:50;;;;;;;7.65;2.67;;;17.50;97.90;;;;;;5007914;28;20038;-63
2022/03/12 11:25:21;;;;;;;5.25;2.22;;;18.00;97.10;;;;;;5005452;28;20045;-62
2022/03/12 11:27:50;;;;;;;5.40;1.77;;;18.30;96.70;;;;;;5013311;28;20026;-63
2022/03/12 11:30:20;;;;;;;5.05;1.77;;;18.20;95.80;;;;;;5012914;28;20140;-63
2022/03/12 11:32:46;;;;;;;6.85;2.40;;;18.00;96.40;;;;;;5031762;28;20533;-63
2022/03/12 11:35:18;;;;;;;5.85;2.22;;;17.90;96.70;;;;;;5013212;28;20032;-62
2022/03/12 11:38:27;;;;;;;4.55;2.55;;;17.80;96.60;;;;;;5015822;28;20045;-62
2022/03/12 11:41:05;;;;;;;4.18;2.08;;;17.50;97.40;;;;;;5012893;28;20025;-63
2022/03/12 11:43:36;;;;;;;5.80;2.15;;;17.70;96.80;;;;;;5014257;28;20041;-62
2022/03/12 11:46:54;;;;;;;3.28;1.55;;;17.70;96.90;;;;;;5006999;28;20076;-64
2022/03/12 11:49:28;;;;;;;5.18;2.33;;;17.90;96.40;;;;;;5005805;28;20025;-63
2022/03/12 11:51:56;;;;;;;7.47;2.28;;;18.10;96.50;;;;;;5015772;28;20029;-63
2022/03/12 11:54:22;;;;;;;5.88;2.13;;;18.00;96.50;;;;;;5012197;28;20056;-63
2022/03/12 11:56:48;;;;;;;4.22;1.80;;;17.90;96.20;;;;;;5008085;28;20057;-65
2022/03/12 11:59:14;;;;;;;3.70;1.90;;;17.60;96.50;;;;;;5029513;28;20033;-66
2022/03/12 12:01:40;;;;;;;5.82;1.98;;;17.10;96.70;;;;;;5013480;28;20030;-63
2022/03/12 12:04:06;;;;;;;3.92;2.05;;;16.90;97.10;;;;;;5018439;28;20042;-63
2022/03/12 12:06:33;;;;;;;5.20;1.92;;;17.10;97.40;;;;;;5021819;28;20076;-63
2022/03/12 12:09:01;;;;;;;3.13;1.52;;;17.40;96.70;;;;;;5018069;28;20049;-65
2022/03/12 12:11:30;;;;;;;5.72;2.17;;;17.50;96.10;;;;;;5004491;28;20026;-64
2022/03/12 12:13:56;;;;;;;7.75;1.98;;;17.60;96.00;;;;;;5012799;28;20072;-65
2022/03/12 12:16:22;;;;;;;5.55;1.85;;;17.90;95.70;;;;;;5015049;28;20033;-65
2022/03/12 12:18:48;;;;;;;7.75;2.15;;;18.00;95.40;;;;;;5007368;28;20045;-63
2022/03/12 12:21:17;;;;;;;7.03;2.40;;;17.70;95.70;;;;;;5012328;28;20026;-63
2022/03/12 12:23:52;;;;;;;9.02;2.30;;;17.50;95.70;;;;;;5012497;28;20398;-63
2022/03/12 12:26:20;;;;;;;6.25;2.53;;;17.30;96.10;;;;;;5015539;28;20076;-65
2022/03/12 12:28:53;;;;;;;3.55;2.38;;;17.40;96.60;;;;;;5014030;28;20026;-63
2022/03/12 12:31:23;;;;;;;7.18;2.05;;;18.10;95.80;;;;;;5015948;28;20045;-64
2022/03/12 12:33:49;;;;;;;8.13;3.17;;;18.90;94.90;;;;;;5000737;28;20079;-63
2022/03/12 12:36:17;;;;;;;6.05;2.33;;;19.10;94.20;;;;;;5020167;28;20052;-63
2022/03/12 12:39:06;;;;;;;6.32;2.30;;;19.20;93.70;;;;;;4998795;28;20037;-63
2022/03/12 12:41:52;;;;;;;5.22;2.00;;;19.50;93.10;;;;;;4995270;28;20026;-63
2022/03/12 12:44:40;;;;;;;3.92;1.63;;;19.30;93.00;;;;;;4995375;28;20038;-63
2022/03/12 12:47:08;;;;;;;7.55;2.08;;;18.90;93.20;;;;;;5008899;28;20060;-63